sensor_id;sensor_type;location;lat;lon;timestamp;temperature;humidity
15217;DHT22;7711;46.634;14.318;2022-07-12T00:00:21;17.90;98.10
15217;DHT22;7711;46.634;14.318;2022-07-12T00:02:51;17.80;98.70
15217;DHT22;7711;46.634;14.318;2022-07-12T00:05:20;17.80;99.30
15217;DHT22;7711;46.634;14.318;2022-07-12T00:07:47;17.80;99.50
15217;DHT22;7711;46.634;14.318;2022-07-12T00:10:14;17.80;99.90
15217;DHT22;7711;46.634;14.318;2022-07-12T00:12:42;17.80;99.90
15217;DHT22;7711;46.634;14.318;2022-07-12T00:15:10;17.70;99.90
15217;DHT22;7711;46.634;14.318;2022-07-12T00:17:39;17.70;99.90
15217;DHT22;7711;46.634;14.318;2022-07-12T00:20:07;17.70;99.90
15217;DHT22;7711;46.634;14.318;2022-07-12T00:22:39;17.60;99.90
15217;DHT22;7711;46.634;14.318;2022-07-12T00:25:07;17.50;99.90
15217;DHT22;7711;46.634;14.318;2022-07-12T00:27:34;17.40;99.90
15217;DHT22;7711;46.634;14.318;2022-07-12T00:30:02;17.30;99.90
15217;DHT22;7711;46.634;14.318;2022-07-12T00:32:35;17.20;99.90
15217;DHT22;7711;46.634;14.318;2022-07-12T00:35:03;17.20;99.90
15217;DHT22;7711;46.634;14.318;2022-07-12T00:37:34;17.20;99.90
15217;DHT22;7711;46.634;14.318;2022-07-12T00:40:04;17.10;99.90
15217;DHT22;7711;46.634;14.318;2022-07-12T00:42:32;16.90;99.90
15217;DHT22;7711;46.634;14.318;2022-07-12T00:44:59;16.90;99.90
15217;DHT22;7711;46.634;14.318;2022-07-12T00:47:33;16.80;99.90
15217;DHT22;7711;46.634;14.318;2022-07-12T00:50:05;16.70;99.90
15217;DHT22;7711;46.634;14.318;2022-07-12T00:52:32;16.60;99.90
15217;DHT22;7711;46.634;14.318;2022-07-12T00:55:00;16.50;99.90
15217;DHT22;7711;46.634;14.318;2022-07-12T00:57:27;16.40;99.90
15217;DHT22;7711;46.634;14.318;2022-07-12T00:59:55;16.40;99.90
15217;DHT22;7711;46.634;14.318;2022-07-12T01:02:25;16.30;99.90
15217;DHT22;7711;46.634;14.318;2022-07-12T01:04:55;16.30;99.90
15217;DHT22;7711;46.634;14.318;2022-07-12T01:07:26;16.30;99.90
15217;DHT22;7711;46.634;14.318;2022-07-12T01:09:55;16.20;99.90
15217;DHT22;7711;46.634;14.318;2022-07-12T01:12:24;16.20;99.90
15217;DHT22;7711;46.634;14.318;2022-07-12T01:14:55;16.30;99.90
15217;DHT22;7711;46.634;14.318;2022-07-12T01:17:25;16.20;99.90
15217;DHT22;7711;46.634;14.318;2022-07-12T01:19:56;16.20;99.90
15217;DHT22;7711;46.634;14.318;2022-07-12T01:22:27;16.10;99.90
15217;DHT22;7711;46.634;14.318;2022-07-12T01:24:59;15.90;99.90
15217;DHT22;7711;46.634;14.318;2022-07-12T01:27:28;15.80;99.90
15217;DHT22;7711;46.634;14.318;2022-07-12T01:29:55;15.70;99.90
15217;DHT22;7711;46.634;14.318;2022-07-12T01:32:23;15.70;99.90
15217;DHT22;7711;46.634;14.318;2022-07-12T01:34:58;15.60;99.90
15217;DHT22;7711;46.634;14.318;2022-07-12T01:37:28;15.50;99.90
15217;DHT22;7711;46.634;14.318;2022-07-12T01:39:57;15.30;99.90
15217;DHT22;7711;46.634;14.318;2022-07-12T01:42:26;15.30;99.90
15217;DHT22;7711;46.634;14.318;2022-07-12T01:44:57;15.20;99.90
15217;DHT22;7711;46.634;14.318;2022-07-12T01:47:26;15.10;99.90
15217;DHT22;7711;46.634;14.318;2022-07-12T01:49:53;15.00;99.90
15217;DHT22;7711;46.634;14.318;2022-07-12T01:52:23;15.10;99.90
15217;DHT22;7711;46.634;14.318;2022-07-12T01:54:52;15.00;99.90
15217;DHT22;7711;46.634;14.318;2022-07-12T01:57:21;15.10;99.90
15217;DHT22;7711;46.634;14.318;2022-07-12T01:59:51;15.00;99.90
15217;DHT22;7711;46.634;14.318;2022-07-12T02:02:18;14.90;99.90
15217;DHT22;7711;46.634;14.318;2022-07-12T02:04:45;14.80;99.90
15217;DHT22;7711;46.634;14.318;2022-07-12T02:07:14;14.80;99.90
15217;DHT22;7711;46.634;14.318;2022-07-12T02:09:41;14.90;99.90
15217;DHT22;7711;46.634;14.318;2022-07-12T02:12:09;14.80;99.90
15217;DHT22;7711;46.634;14.318;2022-07-12T02:14:38;14.70;99.90
15217;DHT22;7711;46.634;14.318;2022-07-12T02:17:05;14.70;99.90
15217;DHT22;7711;46.634;14.318;2022-07-12T02:19:32;14.70;99.90
15217;DHT22;7711;46.634;14.318;2022-07-12T02:21:59;14.50;99.90
15217;DHT22;7711;46.634;14.318;2022-07-12T02:24:27;14.50;99.90
15217;DHT22;7711;46.634;14.318;2022-07-12T02:26:54;14.40;99.90
15217;DHT22;7711;46.634;14.318;2022-07-12T02:29:22;14.30;99.90
15217;DHT22;7711;46.634;14.318;2022-07-12T02:31:52;14.10;99.90
15217;DHT22;7711;46.634;14.318;2022-07-12T02:34:23;14.10;99.90
15217;DHT22;7711;46.634;14.318;2022-07-12T02:36:53;14.10;99.90
15217;DHT22;7711;46.634;14.318;2022-07-12T02:39:21;14.10;99.90
15217;DHT22;7711;46.634;14.318;2022-07-12T02:41:48;14.10;99.90
15217;DHT22;7711;46.634;14.318;2022-07-12T02:44:18;14.20;99.90
15217;DHT22;7711;46.634;14.318;2022-07-12T02:46:50;14.20;99.90
15217;DHT22;7711;46.634;14.318;2022-07-12T02:49:19;14.10;99.90
15217;DHT22;7711;46.634;14.318;2022-07-12T02:51:47;14.10;99.90
15217;DHT22;7711;46.634;14.318;2022-07-12T02:54:19;14.10;99.90
15217;DHT22;7711;46.634;14.318;2022-07-12T02:56:49;14.00;99.90
15217;DHT22;7711;46.634;14.318;2022-07-12T02:59:20;13.90;99.90
15217;DHT22;7711;46.634;14.318;2022-07-12T03:01:47;13.80;99.90
15217;DHT22;7711;46.634;14.318;2022-07-12T03:04:15;13.90;99.90
15217;DHT22;7711;46.634;14.318;2022-07-12T03:06:44;13.90;99.90
15217;DHT22;7711;46.634;14.318;2022-07-12T03:09:12;13.90;99.90
15217;DHT22;7711;46.634;14.318;2022-07-12T03:11:45;14.00;99.90
15217;DHT22;7711;46.634;14.318;2022-07-12T03:14:13;13.90;99.90
15217;DHT22;7711;46.634;14.318;2022-07-12T03:16:41;13.80;99.90
15217;DHT22;7711;46.634;14.318;2022-07-12T03:19:09;13.80;99.90
15217;DHT22;7711;46.634;14.318;2022-07-12T03:21:39;13.80;99.90
15217;DHT22;7711;46.634;14.318;2022-07-12T03:24:09;13.80;99.90
15217;DHT22;7711;46.634;14.318;2022-07-12T03:26:37;13.70;99.90
15217;DHT22;7711;46.634;14.318;2022-07-12T03:29:05;13.70;99.90
15217;DHT22;7711;46.634;14.318;2022-07-12T03:31:33;13.70;99.90
15217;DHT22;7711;46.634;14.318;2022-07-12T03:34:00;13.70;99.90
15217;DHT22;7711;46.634;14.318;2022-07-12T03:36:27;13.60;99.90
15217;DHT22;7711;46.634;14.318;2022-07-12T03:38:56;13.50;99.90
15217;DHT22;7711;46.634;14.318;2022-07-12T03:41:24;13.40;99.90
15217;DHT22;7711;46.634;14.318;2022-07-12T03:43:51;13.50;99.90
15217;DHT22;7711;46.634;14.318;2022-07-12T03:46:20;13.50;99.90
15217;DHT22;7711;46.634;14.318;2022-07-12T03:48:47;13.50;99.90
15217;DHT22;7711;46.634;14.318;2022-07-12T03:51:16;13.60;99.90
15217;DHT22;7711;46.634;14.318;2022-07-12T03:53:43;13.50;99.90
15217;DHT22;7711;46.634;14.318;2022-07-12T03:56:16;13.50;99.90
15217;DHT22;7711;46.634;14.318;2022-07-12T03:58:59;13.50;99.90
15217;DHT22;7711;46.634;14.318;2022-07-12T04:01:28;13.50;99.90
15217;DHT22;7711;46.634;14.318;2022-07-12T04:03:55;13.50;99.90
15217;DHT22;7711;46.634;14.318;2022-07-12T04:06:22;13.50;99.90
15217;DHT22;7711;46.634;14.318;2022-07-12T04:08:50;13.40;99.90
15217;DHT22;7711;46.634;14.318;2022-07-12T04:11:17;13.50;99.90
15217;DHT22;7711;46.634;14.318;2022-07-12T04:13:44;13.50;99.90
15217;DHT22;7711;46.634;14.318;2022-07-12T04:16:13;13.40;99.90
15217;DHT22;7711;46.634;14.318;2022-07-12T04:18:41;13.50;99.90
15217;DHT22;7711;46.634;14.318;2022-07-12T04:21:10;13.40;99.90
15217;DHT22;7711;46.634;14.318;2022-07-12T04:23:38;13.40;99.90
15217;DHT22;7711;46.634;14.318;2022-07-12T04:26:05;13.40;99.90
15217;DHT22;7711;46.634;14.318;2022-07-12T04:28:35;13.50;99.90
15217;DHT22;7711;46.634;14.318;2022-07-12T04:31:02;13.50;99.90
15217;DHT22;7711;46.634;14.318;2022-07-12T04:33:30;13.50;99.90
15217;DHT22;7711;46.634;14.318;2022-07-12T04:35:58;13.50;99.90
15217;DHT22;7711;46.634;14.318;2022-07-12T04:38:28;13.50;99.90
15217;DHT22;7711;46.634;14.318;2022-07-12T04:40:55;13.50;99.90
15217;DHT22;7711;46.634;14.318;2022-07-12T04:43:22;13.60;99.90
15217;DHT22;7711;46.634;14.318;2022-07-12T04:45:51;13.70;99.90
15217;DHT22;7711;46.634;14.318;2022-07-12T04:48:18;13.80;99.90
15217;DHT22;7711;46.634;14.318;2022-07-12T04:50:47;13.80;99.90
15217;DHT22;7711;46.634;14.318;2022-07-12T04:53:14;13.90;99.90
15217;DHT22;7711;46.634;14.318;2022-07-12T04:55:43;14.20;99.90
15217;DHT22;7711;46.634;14.318;2022-07-12T04:58:15;14.40;99.90
15217;DHT22;7711;46.634;14.318;2022-07-12T05:00:43;14.50;99.90
15217;DHT22;7711;46.634;14.318;2022-07-12T05:03:10;14.70;99.90
15217;DHT22;7711;46.634;14.318;2022-07-12T05:05:42;14.80;99.90
15217;DHT22;7711;46.634;14.318;2022-07-12T05:08:13;14.80;99.90
15217;DHT22;7711;46.634;14.318;2022-07-12T05:10:40;14.90;99.90
15217;DHT22;7711;46.634;14.318;2022-07-12T05:13:09;14.90;99.90
15217;DHT22;7711;46.634;14.318;2022-07-12T05:15:38;14.90;99.90
15217;DHT22;7711;46.634;14.318;2022-07-12T05:18:05;15.00;99.90
15217;DHT22;7711;46.634;14.318;2022-07-12T05:20:34;15.10;99.90
15217;DHT22;7711;46.634;14.318;2022-07-12T05:23:01;15.20;99.90
15217;DHT22;7711;46.634;14.318;2022-07-12T05:25:33;15.30;99.90
15217;DHT22;7711;46.634;14.318;2022-07-12T05:28:00;15.40;99.90
15217;DHT22;7711;46.634;14.318;2022-07-12T05:30:30;15.60;99.90
15217;DHT22;7711;46.634;14.318;2022-07-12T05:32:57;15.70;99.90
15217;DHT22;7711;46.634;14.318;2022-07-12T05:35:24;15.80;99.90
15217;DHT22;7711;46.634;14.318;2022-07-12T05:37:53;15.90;99.90
15217;DHT22;7711;46.634;14.318;2022-07-12T05:40:21;15.90;99.90
15217;DHT22;7711;46.634;14.318;2022-07-12T05:42:49;16.10;99.90
15217;DHT22;7711;46.634;14.318;2022-07-12T05:45:20;16.20;99.90
15217;DHT22;7711;46.634;14.318;2022-07-12T05:47:48;16.30;99.90
15217;DHT22;7711;46.634;14.318;2022-07-12T05:50:17;16.40;99.90
15217;DHT22;7711;46.634;14.318;2022-07-12T05:52:44;16.60;99.90
15217;DHT22;7711;46.634;14.318;2022-07-12T05:55:28;16.70;99.90
15217;DHT22;7711;46.634;14.318;2022-07-12T05:57:59;16.80;99.90
15217;DHT22;7711;46.634;14.318;2022-07-12T06:00:30;16.90;99.90
15217;DHT22;7711;46.634;14.318;2022-07-12T06:03:00;17.00;99.90
15217;DHT22;7711;46.634;14.318;2022-07-12T06:05:30;17.10;99.90
15217;DHT22;7711;46.634;14.318;2022-07-12T06:07:57;17.20;99.90
15217;DHT22;7711;46.634;14.318;2022-07-12T06:10:25;17.40;99.90
15217;DHT22;7711;46.634;14.318;2022-07-12T06:12:52;17.40;99.90
15217;DHT22;7711;46.634;14.318;2022-07-12T06:15:22;17.50;99.90
15217;DHT22;7711;46.634;14.318;2022-07-12T06:17:52;17.60;99.90
15217;DHT22;7711;46.634;14.318;2022-07-12T06:20:19;17.60;99.90
15217;DHT22;7711;46.634;14.318;2022-07-12T06:22:46;17.70;99.90
15217;DHT22;7711;46.634;14.318;2022-07-12T06:25:17;17.90;99.90
15217;DHT22;7711;46.634;14.318;2022-07-12T06:27:44;18.00;99.90
15217;DHT22;7711;46.634;14.318;2022-07-12T06:30:15;18.10;99.90
15217;DHT22;7711;46.634;14.318;2022-07-12T06:32:47;17.90;99.90
15217;DHT22;7711;46.634;14.318;2022-07-12T06:35:14;17.90;99.90
15217;DHT22;7711;46.634;14.318;2022-07-12T06:37:46;18.10;99.90
15217;DHT22;7711;46.634;14.318;2022-07-12T06:40:14;18.10;99.90
15217;DHT22;7711;46.634;14.318;2022-07-12T06:42:45;18.30;99.90
15217;DHT22;7711;46.634;14.318;2022-07-12T06:45:14;18.30;99.90
15217;DHT22;7711;46.634;14.318;2022-07-12T06:47:41;18.30;99.90
15217;DHT22;7711;46.634;14.318;2022-07-12T06:50:10;18.70;99.90
15217;DHT22;7711;46.634;14.318;2022-07-12T06:52:39;18.90;99.90
15217;DHT22;7711;46.634;14.318;2022-07-12T06:55:07;18.90;99.90
15217;DHT22;7711;46.634;14.318;2022-07-12T06:57:37;19.10;99.90
15217;DHT22;7711;46.634;14.318;2022-07-12T07:00:06;19.40;99.90
15217;DHT22;7711;46.634;14.318;2022-07-12T07:02:33;19.60;99.90
15217;DHT22;7711;46.634;14.318;2022-07-12T07:05:01;19.80;99.90
15217;DHT22;7711;46.634;14.318;2022-07-12T07:07:30;19.80;99.90
15217;DHT22;7711;46.634;14.318;2022-07-12T07:09:58;19.60;99.90
15217;DHT22;7711;46.634;14.318;2022-07-12T07:12:26;19.80;99.90
15217;DHT22;7711;46.634;14.318;2022-07-12T07:14:56;20.10;99.90
15217;DHT22;7711;46.634;14.318;2022-07-12T07:17:23;20.30;99.90
15217;DHT22;7711;46.634;14.318;2022-07-12T07:19:54;20.30;99.90
15217;DHT22;7711;46.634;14.318;2022-07-12T07:22:23;20.20;99.90
15217;DHT22;7711;46.634;14.318;2022-07-12T07:24:52;20.20;99.90
15217;DHT22;7711;46.634;14.318;2022-07-12T07:27:19;20.30;99.90
15217;DHT22;7711;46.634;14.318;2022-07-12T07:29:48;20.80;99.90
15217;DHT22;7711;46.634;14.318;2022-07-12T07:32:36;20.90;99.90
15217;DHT22;7711;46.634;14.318;2022-07-12T07:35:04;20.60;99.90
15217;DHT22;7711;46.634;14.318;2022-07-12T07:37:32;20.40;99.90
15217;DHT22;7711;46.634;14.318;2022-07-12T07:40:00;20.70;99.90
15217;DHT22;7711;46.634;14.318;2022-07-12T07:42:29;20.60;99.90
15217;DHT22;7711;46.634;14.318;2022-07-12T07:44:59;20.60;99.90
15217;DHT22;7711;46.634;14.318;2022-07-12T07:47:27;20.70;99.90
15217;DHT22;7711;46.634;14.318;2022-07-12T07:49:55;20.60;99.90
15217;DHT22;7711;46.634;14.318;2022-07-12T07:52:23;20.50;99.90
15217;DHT22;7711;46.634;14.318;2022-07-12T07:54:50;20.70;99.90
15217;DHT22;7711;46.634;14.318;2022-07-12T07:57:18;21.10;99.90
15217;DHT22;7711;46.634;14.318;2022-07-12T07:59:45;21.30;99.90
15217;DHT22;7711;46.634;14.318;2022-07-12T08:02:14;21.50;99.90
15217;DHT22;7711;46.634;14.318;2022-07-12T08:04:43;21.70;99.90
15217;DHT22;7711;46.634;14.318;2022-07-12T08:07:14;21.70;99.90
15217;DHT22;7711;46.634;14.318;2022-07-12T08:09:44;21.60;99.90
15217;DHT22;7711;46.634;14.318;2022-07-12T08:12:13;21.50;99.90
15217;DHT22;7711;46.634;14.318;2022-07-12T08:14:45;21.60;99.90
15217;DHT22;7711;46.634;14.318;2022-07-12T08:17:14;21.80;99.90
15217;DHT22;7711;46.634;14.318;2022-07-12T08:19:43;21.80;99.90
15217;DHT22;7711;46.634;14.318;2022-07-12T08:22:12;21.90;99.90
15217;DHT22;7711;46.634;14.318;2022-07-12T08:24:39;21.70;99.90
15217;DHT22;7711;46.634;14.318;2022-07-12T08:27:06;21.70;99.90
15217;DHT22;7711;46.634;14.318;2022-07-12T08:29:34;21.50;99.90
15217;DHT22;7711;46.634;14.318;2022-07-12T08:32:02;21.40;99.90
15217;DHT22;7711;46.634;14.318;2022-07-12T08:34:31;21.50;99.90
15217;DHT22;7711;46.634;14.318;2022-07-12T08:36:58;21.80;99.90
15217;DHT22;7711;46.634;14.318;2022-07-12T08:39:26;22.00;99.90
15217;DHT22;7711;46.634;14.318;2022-07-12T08:41:53;22.40;99.90
15217;DHT22;7711;46.634;14.318;2022-07-12T08:44:20;22.50;99.90
15217;DHT22;7711;46.634;14.318;2022-07-12T08:46:50;22.60;99.90
15217;DHT22;7711;46.634;14.318;2022-07-12T08:49:19;22.80;99.90
15217;DHT22;7711;46.634;14.318;2022-07-12T08:51:47;22.80;99.90
15217;DHT22;7711;46.634;14.318;2022-07-12T08:54:15;22.70;99.70
15217;DHT22;7711;46.634;14.318;2022-07-12T08:56:45;22.60;98.40
15217;DHT22;7711;46.634;14.318;2022-07-12T08:59:13;22.60;99.20
15217;DHT22;7711;46.634;14.318;2022-07-12T09:01:43;23.00;99.90
15217;DHT22;7711;46.634;14.318;2022-07-12T09:04:13;22.90;99.60
15217;DHT22;7711;46.634;14.318;2022-07-12T09:06:43;23.10;99.90
15217;DHT22;7711;46.634;14.318;2022-07-12T09:09:25;23.20;97.70
15217;DHT22;7711;46.634;14.318;2022-07-12T09:11:53;23.30;98.70
15217;DHT22;7711;46.634;14.318;2022-07-12T09:14:23;23.40;98.40
15217;DHT22;7711;46.634;14.318;2022-07-12T09:16:59;22.90;97.50
15217;DHT22;7711;46.634;14.318;2022-07-12T09:19:32;22.80;98.00
15217;DHT22;7711;46.634;14.318;2022-07-12T09:22:03;23.30;97.50
15217;DHT22;7711;46.634;14.318;2022-07-12T09:24:31;23.40;96.30
15217;DHT22;7711;46.634;14.318;2022-07-12T09:27:03;23.90;95.30
15217;DHT22;7711;46.634;14.318;2022-07-12T09:29:31;24.10;95.90
15217;DHT22;7711;46.634;14.318;2022-07-12T09:32:06;24.50;94.60
15217;DHT22;7711;46.634;14.318;2022-07-12T09:34:58;24.20;91.90
15217;DHT22;7711;46.634;14.318;2022-07-12T09:37:44;24.60;92.70
15217;DHT22;7711;46.634;14.318;2022-07-12T09:40:13;24.50;91.90
15217;DHT22;7711;46.634;14.318;2022-07-12T09:42:44;24.90;93.00
15217;DHT22;7711;46.634;14.318;2022-07-12T09:45:12;25.10;91.50
15217;DHT22;7711;46.634;14.318;2022-07-12T09:47:44;24.40;87.60
15217;DHT22;7711;46.634;14.318;2022-07-12T09:50:14;24.10;89.00
15217;DHT22;7711;46.634;14.318;2022-07-12T09:52:44;24.30;89.50
15217;DHT22;7711;46.634;14.318;2022-07-12T09:55:14;24.40;89.00
15217;DHT22;7711;46.634;14.318;2022-07-12T09:57:44;25.00;91.00
15217;DHT22;7711;46.634;14.318;2022-07-12T10:00:13;25.20;91.60
15217;DHT22;7711;46.634;14.318;2022-07-12T10:02:41;25.30;90.70
15217;DHT22;7711;46.634;14.318;2022-07-12T10:05:11;25.40;88.10
15217;DHT22;7711;46.634;14.318;2022-07-12T10:07:42;24.60;85.20
15217;DHT22;7711;46.634;14.318;2022-07-12T10:10:11;24.90;88.40
15217;DHT22;7711;46.634;14.318;2022-07-12T10:12:40;25.40;91.60
15217;DHT22;7711;46.634;14.318;2022-07-12T10:15:13;25.80;89.60
15217;DHT22;7711;46.634;14.318;2022-07-12T10:17:42;26.00;90.50
15217;DHT22;7711;46.634;14.318;2022-07-12T10:20:18;26.20;89.70
15217;DHT22;7711;46.634;14.318;2022-07-12T10:22:48;26.00;84.20
15217;DHT22;7711;46.634;14.318;2022-07-12T10:25:31;26.30;88.90
15217;DHT22;7711;46.634;14.318;2022-07-12T10:28:01;26.40;85.50
15217;DHT22;7711;46.634;14.318;2022-07-12T10:30:30;26.40;89.30
15217;DHT22;7711;46.634;14.318;2022-07-12T10:32:58;26.80;86.30
15217;DHT22;7711;46.634;14.318;2022-07-12T10:35:28;27.00;82.20
15217;DHT22;7711;46.634;14.318;2022-07-12T10:38:18;27.40;80.40
15217;DHT22;7711;46.634;14.318;2022-07-12T10:40:50;26.80;76.20
15217;DHT22;7711;46.634;14.318;2022-07-12T10:43:24;26.50;78.70
15217;DHT22;7711;46.634;14.318;2022-07-12T10:46:14;25.60;77.90
15217;DHT22;7711;46.634;14.318;2022-07-12T10:48:46;26.10;79.10
15217;DHT22;7711;46.634;14.318;2022-07-12T10:51:15;26.00;80.00
15217;DHT22;7711;46.634;14.318;2022-07-12T10:53:46;26.50;83.00
15217;DHT22;7711;46.634;14.318;2022-07-12T10:56:17;26.40;77.50
15217;DHT22;7711;46.634;14.318;2022-07-12T10:58:47;26.20;78.60
15217;DHT22;7711;46.634;14.318;2022-07-12T11:01:16;26.50;79.40
15217;DHT22;7711;46.634;14.318;2022-07-12T11:03:45;26.60;78.10
15217;DHT22;7711;46.634;14.318;2022-07-12T11:06:15;26.00;75.70
15217;DHT22;7711;46.634;14.318;2022-07-12T11:08:53;26.90;82.20
15217;DHT22;7711;46.634;14.318;2022-07-12T11:11:22;27.40;80.50
15217;DHT22;7711;46.634;14.318;2022-07-12T11:13:51;27.20;78.10
15217;DHT22;7711;46.634;14.318;2022-07-12T11:16:20;27.20;78.40
15217;DHT22;7711;46.634;14.318;2022-07-12T11:18:48;26.80;76.20
15217;DHT22;7711;46.634;14.318;2022-07-12T11:21:17;26.30;76.50
15217;DHT22;7711;46.634;14.318;2022-07-12T11:23:44;26.00;77.60
15217;DHT22;7711;46.634;14.318;2022-07-12T11:26:13;25.80;77.20
15217;DHT22;7711;46.634;14.318;2022-07-12T11:28:43;25.50;76.70
15217;DHT22;7711;46.634;14.318;2022-07-12T11:31:14;25.30;75.30
15217;DHT22;7711;46.634;14.318;2022-07-12T11:33:45;25.10;77.50
15217;DHT22;7711;46.634;14.318;2022-07-12T11:36:14;25.40;76.90
15217;DHT22;7711;46.634;14.318;2022-07-12T11:38:44;26.10;79.60
15217;DHT22;7711;46.634;14.318;2022-07-12T11:41:14;26.60;79.70
15217;DHT22;7711;46.634;14.318;2022-07-12T11:43:42;27.10;78.30
15217;DHT22;7711;46.634;14.318;2022-07-12T11:46:13;27.50;75.10
15217;DHT22;7711;46.634;14.318;2022-07-12T11:48:43;27.50;76.40
15217;DHT22;7711;46.634;14.318;2022-07-12T11:51:12;27.50;77.00
15217;DHT22;7711;46.634;14.318;2022-07-12T11:53:40;27.70;74.30
15217;DHT22;7711;46.634;14.318;2022-07-12T11:56:08;28.00;72.00
15217;DHT22;7711;46.634;14.318;2022-07-12T11:58:36;27.90;71.60
15217;DHT22;7711;46.634;14.318;2022-07-12T12:01:04;28.10;75.40
15217;DHT22;7711;46.634;14.318;2022-07-12T12:03:42;27.20;70.20
15217;DHT22;7711;46.634;14.318;2022-07-12T12:06:12;26.30;70.20
15217;DHT22;7711;46.634;14.318;2022-07-12T12:08:39;26.50;71.60
15217;DHT22;7711;46.634;14.318;2022-07-12T12:11:10;27.40;71.60
15217;DHT22;7711;46.634;14.318;2022-07-12T12:13:37;27.90;74.90
15217;DHT22;7711;46.634;14.318;2022-07-12T12:16:06;28.80;73.90
15217;DHT22;7711;46.634;14.318;2022-07-12T12:18:37;29.00;70.20
15217;DHT22;7711;46.634;14.318;2022-07-12T12:21:07;29.30;69.90
15217;DHT22;7711;46.634;14.318;2022-07-12T12:23:36;29.10;70.20
15217;DHT22;7711;46.634;14.318;2022-07-12T12:26:14;28.40;67.40
15217;DHT22;7711;46.634;14.318;2022-07-12T12:28:46;27.80;69.20
15217;DHT22;7711;46.634;14.318;2022-07-12T12:31:14;27.60;71.60
15217;DHT22;7711;46.634;14.318;2022-07-12T12:33:43;27.20;70.30
15217;DHT22;7711;46.634;14.318;2022-07-12T12:36:15;27.00;70.40
15217;DHT22;7711;46.634;14.318;2022-07-12T12:38:43;26.60;70.30
15217;DHT22;7711;46.634;14.318;2022-07-12T12:41:11;26.70;72.60
15217;DHT22;7711;46.634;14.318;2022-07-12T12:43:39;27.10;73.80
15217;DHT22;7711;46.634;14.318;2022-07-12T12:46:09;27.70;72.40
15217;DHT22;7711;46.634;14.318;2022-07-12T12:48:36;28.70;71.20
15217;DHT22;7711;46.634;14.318;2022-07-12T12:51:06;29.10;70.30
15217;DHT22;7711;46.634;14.318;2022-07-12T12:53:38;29.10;68.30
15217;DHT22;7711;46.634;14.318;2022-07-12T12:56:07;28.80;66.20
15217;DHT22;7711;46.634;14.318;2022-07-12T12:58:36;28.80;67.30
15217;DHT22;7711;46.634;14.318;2022-07-12T13:01:05;29.50;69.20
15217;DHT22;7711;46.634;14.318;2022-07-12T13:03:32;29.80;67.30
15217;DHT22;7711;46.634;14.318;2022-07-12T13:05:59;29.30;66.80
15217;DHT22;7711;46.634;14.318;2022-07-12T13:08:29;29.00;63.60
15217;DHT22;7711;46.634;14.318;2022-07-12T13:10:56;28.70;67.50
15217;DHT22;7711;46.634;14.318;2022-07-12T13:13:41;28.70;67.80
15217;DHT22;7711;46.634;14.318;2022-07-12T13:16:08;28.70;68.30
15217;DHT22;7711;46.634;14.318;2022-07-12T13:18:39;28.00;64.80
15217;DHT22;7711;46.634;14.318;2022-07-12T13:21:06;29.00;67.60
15217;DHT22;7711;46.634;14.318;2022-07-12T13:23:36;30.00;68.20
15217;DHT22;7711;46.634;14.318;2022-07-12T13:26:04;30.60;66.40
15217;DHT22;7711;46.634;14.318;2022-07-12T13:28:31;31.30;65.80
15217;DHT22;7711;46.634;14.318;2022-07-12T13:30:59;31.50;64.30
15217;DHT22;7711;46.634;14.318;2022-07-12T13:33:29;31.90;63.60
15217;DHT22;7711;46.634;14.318;2022-07-12T13:36:00;32.10;62.10
15217;DHT22;7711;46.634;14.318;2022-07-12T13:38:27;32.90;61.60
15217;DHT22;7711;46.634;14.318;2022-07-12T13:40:59;32.80;57.50
15217;DHT22;7711;46.634;14.318;2022-07-12T13:43:26;33.20;59.50
15217;DHT22;7711;46.634;14.318;2022-07-12T13:45:55;32.90;57.40
15217;DHT22;7711;46.634;14.318;2022-07-12T13:48:26;32.20;57.60
15217;DHT22;7711;46.634;14.318;2022-07-12T13:50:55;32.00;56.90
15217;DHT22;7711;46.634;14.318;2022-07-12T13:53:23;32.40;57.80
15217;DHT22;7711;46.634;14.318;2022-07-12T13:55:50;33.10;55.30
15217;DHT22;7711;46.634;14.318;2022-07-12T13:58:19;32.80;55.90
15217;DHT22;7711;46.634;14.318;2022-07-12T14:00:46;31.80;59.10
15217;DHT22;7711;46.634;14.318;2022-07-12T14:03:15;30.40;60.90
15217;DHT22;7711;46.634;14.318;2022-07-12T14:05:42;29.50;63.60
15217;DHT22;7711;46.634;14.318;2022-07-12T14:08:12;29.00;62.70
15217;DHT22;7711;46.634;14.318;2022-07-12T14:10:43;29.20;64.80
15217;DHT22;7711;46.634;14.318;2022-07-12T14:13:13;29.40;65.90
15217;DHT22;7711;46.634;14.318;2022-07-12T14:15:42;28.30;67.30
15217;DHT22;7711;46.634;14.318;2022-07-12T14:18:11;27.70;71.60
15217;DHT22;7711;46.634;14.318;2022-07-12T14:20:39;27.00;77.00
15217;DHT22;7711;46.634;14.318;2022-07-12T14:23:06;26.30;83.40
15217;DHT22;7711;46.634;14.318;2022-07-12T14:25:34;26.40;84.60
15217;DHT22;7711;46.634;14.318;2022-07-12T14:28:03;28.30;86.20
15217;DHT22;7711;46.634;14.318;2022-07-12T14:30:33;29.20;84.80
15217;DHT22;7711;46.634;14.318;2022-07-12T14:33:03;30.20;81.80
15217;DHT22;7711;46.634;14.318;2022-07-12T14:35:31;31.00;82.90
15217;DHT22;7711;46.634;14.318;2022-07-12T14:37:59;32.10;78.30
15217;DHT22;7711;46.634;14.318;2022-07-12T14:40:29;32.40;74.00
15217;DHT22;7711;46.634;14.318;2022-07-12T14:42:58;32.00;73.70
15217;DHT22;7711;46.634;14.318;2022-07-12T14:45:25;31.10;72.20
15217;DHT22;7711;46.634;14.318;2022-07-12T14:47:56;31.60;71.40
15217;DHT22;7711;46.634;14.318;2022-07-12T14:50:25;31.30;70.00
15217;DHT22;7711;46.634;14.318;2022-07-12T14:52:52;30.80;72.00
15217;DHT22;7711;46.634;14.318;2022-07-12T14:55:21;29.90;74.20
15217;DHT22;7711;46.634;14.318;2022-07-12T14:57:50;30.70;80.50
15217;DHT22;7711;46.634;14.318;2022-07-12T15:00:17;30.60;78.80
15217;DHT22;7711;46.634;14.318;2022-07-12T15:02:48;31.10;78.70
15217;DHT22;7711;46.634;14.318;2022-07-12T15:05:15;31.40;78.20
15217;DHT22;7711;46.634;14.318;2022-07-12T15:07:44;31.50;75.40
15217;DHT22;7711;46.634;14.318;2022-07-12T15:10:11;31.60;74.30
15217;DHT22;7711;46.634;14.318;2022-07-12T15:12:38;31.90;72.40
15217;DHT22;7711;46.634;14.318;2022-07-12T15:15:06;31.10;72.40
15217;DHT22;7711;46.634;14.318;2022-07-12T15:17:34;30.50;74.30
15217;DHT22;7711;46.634;14.318;2022-07-12T15:20:04;30.20;72.30
15217;DHT22;7711;46.634;14.318;2022-07-12T15:22:36;29.20;71.50
15217;DHT22;7711;46.634;14.318;2022-07-12T15:25:05;28.50;72.20
15217;DHT22;7711;46.634;14.318;2022-07-12T15:27:34;28.10;73.70
15217;DHT22;7711;46.634;14.318;2022-07-12T15:30:02;27.80;75.50
15217;DHT22;7711;46.634;14.318;2022-07-12T15:32:30;29.40;73.70
15217;DHT22;7711;46.634;14.318;2022-07-12T15:35:02;30.30;72.00
15217;DHT22;7711;46.634;14.318;2022-07-12T15:37:31;30.90;70.50
15217;DHT22;7711;46.634;14.318;2022-07-12T15:39:58;32.00;69.00
15217;DHT22;7711;46.634;14.318;2022-07-12T15:42:28;30.30;67.50